Duke Field,(Eglin Af Aux Nr 3) Airport
KEGI : now visible

Airfield :











YOU CAN JOIN US ON...

 
LOGIN :

Register | Disclaimer

   EN    FR    IT 

 









Legend :    VFR   Marginal VFR   IFR   Intensive IFR   Very Intensive IFR
Visi :
Ceiling :
>= 8 km
>= 3000ft
5 to 8 km
1000 to 3000 ft
1500m to 5 km
500 to 1000 ft
800 to 1500m
200 to 500 ft
< 800m
< 200 ft
Symbols :   Thunderstorms  Fog  Heavy snow  Heavy precipitations  Wind > 20 kt






- Airport Elevation : 191 ft


KEGI - Duke Field,(Eglin Af Aux Nr 3)

CURRENT METAR :
  • 251856Z AUTO 17016KT 10SM BKN012 22/13 A2991 RMK AO2 SLP128 T02150126 $

EXPIRED METARs :
  • 251810Z AUTO 17015G21KT 10SM BKN010 21/13 A2992 RMK AO2 SLP132 $
  • 251756Z AUTO 17015G21KT 10SM BKN009 21/13 A2993 RMK AO2 BKN V OVC SLP135 T02050132 10205 20165 58016 $
  • 251656Z AUTO 17013KT 10SM OVC009 20/13 A2997 RMK AO2 CIG 007V009 SLP149 T01980133 $

TAF TAF KEGI
Valid from the 25 at 10:00 until the 26 at 16:00 UTC


251000Z 2510/2616 13008KT 0800 FG OVC001 QNH2998INS
TEMPO 2510/2514 1600 BR OVC003
BECMG 2513/2514 14009KT 8000 BR BKN005 BKN010 OVC030 QNH2996INS
BECMG 2515/2516 16011KT 9999 NSW SCT005 BKN010 OVC030 QNH2997INS
BECMG 2517/2518 19012KT 9999 FEW015 BKN020 BKN040 QNH2998INS
BECMG 2520/2521 17009KT 9000 BR BKN007 OVC020 QNH2996INS
BECMG 2601/2602 17007KT 4800 BR OVC005 QNH2995INS
BECMG 2605/2606 18008KT 0800 FG VCSH OVC001 QNH2992INS
BECMG 2609/2610 20008KT 1600 -SHRA BR OVC005 QNH2990INS
BECMG 2614/2615 21009KT 6000 -SHRA VCTS BKN010CB OVC015 QNH2988INS TX20/2519Z TN16/2510Z LAST NO AMDS AFT 2510 NEXT 2613
KZJX FIR / North America



MET'MAP, your aeronautical weather chart ! - Copyright ORBIFLY December 2007 - Disclaimer

ORBIFLY MET'MAP TEAM :

Programming & Development : Alexandra Zaïnal
Concept & original design : Baudouin d'Aumeries
Assistance for programming : Marc-Olivier Méhu
Technical & hardware support : Manuel Goepfert

Contact : metmap@orbifly.com




SOURCES & CREDITS :

   NOAA       Earth
Advisory